sensor_id;sensor_type;location;lat;lon;timestamp;pressure;altitude;pressure_sealevel;temperature;humidity
61119;BME280;51448;51.660;5.824;2022-10-31T00:01:30;101960.81;;;14.09;97.86
61119;BME280;51448;51.660;5.824;2022-10-31T00:04:00;101965.28;;;14.07;98.26
61119;BME280;51448;51.660;5.824;2022-10-31T00:06:27;101965.34;;;14.04;98.06
61119;BME280;51448;51.660;5.824;2022-10-31T00:08:57;101963.63;;;14.03;98.43
61119;BME280;51448;51.660;5.824;2022-10-31T00:11:26;101953.09;;;14.00;98.50
61119;BME280;51448;51.660;5.824;2022-10-31T00:13:54;101957.56;;;13.98;98.72
61119;BME280;51448;51.660;5.824;2022-10-31T00:16:24;101949.69;;;13.97;98.47
61119;BME280;51448;51.660;5.824;2022-10-31T00:19:03;101959.38;;;13.96;99.04
61119;BME280;51448;51.660;5.824;2022-10-31T00:21:34;101971.84;;;13.91;98.86
61119;BME280;51448;51.660;5.824;2022-10-31T00:24:01;101966.63;;;13.88;98.84
61119;BME280;51448;51.660;5.824;2022-10-31T00:26:30;101972.03;;;13.83;99.02
61119;BME280;51448;51.660;5.824;2022-10-31T00:28:59;101977.41;;;13.80;98.98
61119;BME280;51448;51.660;5.824;2022-10-31T00:31:27;101972.16;;;13.77;98.54
61119;BME280;51448;51.660;5.824;2022-10-31T00:33:54;101967.00;;;13.73;99.01
61119;BME280;51448;51.660;5.824;2022-10-31T00:36:22;101964.41;;;13.69;99.18
61119;BME280;51448;51.660;5.824;2022-10-31T00:38:49;101962.72;;;13.67;99.29
61119;BME280;51448;51.660;5.824;2022-10-31T00:41:17;101964.53;;;13.63;99.29
61119;BME280;51448;51.660;5.824;2022-10-31T00:43:45;101969.91;;;13.60;98.96
61119;BME280;51448;51.660;5.824;2022-10-31T00:46:13;101966.47;;;13.57;99.41
61119;BME280;51448;51.660;5.824;2022-10-31T00:48:41;101954.25;;;13.51;99.25
61119;BME280;51448;51.660;5.824;2022-10-31T00:51:09;101959.69;;;13.45;99.32
61119;BME280;51448;51.660;5.824;2022-10-31T00:53:37;101951.94;;;13.37;99.39
61119;BME280;51448;51.660;5.824;2022-10-31T00:56:05;101960.00;;;13.31;99.19
61119;BME280;51448;51.660;5.824;2022-10-31T00:58:32;101947.75;;;13.25;99.10
61119;BME280;51448;51.660;5.824;2022-10-31T01:01:01;101956.63;;;13.21;99.39
61119;BME280;51448;51.660;5.824;2022-10-31T01:03:32;101948.91;;;13.12;99.03
61119;BME280;51448;51.660;5.824;2022-10-31T01:06:11;101957.03;;;13.03;98.97
61119;BME280;51448;51.660;5.824;2022-10-31T01:08:40;101958.97;;;12.93;98.75
61119;BME280;51448;51.660;5.824;2022-10-31T01:11:17;101963.50;;;12.86;98.86
61119;BME280;51448;51.660;5.824;2022-10-31T01:13:47;101957.50;;;12.80;99.28
61119;BME280;51448;51.660;5.824;2022-10-31T01:16:18;101963.72;;;12.76;98.96
61119;BME280;51448;51.660;5.824;2022-10-31T01:18:50;101958.50;;;12.71;99.19
61119;BME280;51448;51.660;5.824;2022-10-31T01:21:24;101962.09;;;12.67;99.03
61119;BME280;51448;51.660;5.824;2022-10-31T01:23:58;101964.84;;;12.62;98.89
61119;BME280;51448;51.660;5.824;2022-10-31T01:26:28;101965.78;;;12.60;98.98
61119;BME280;51448;51.660;5.824;2022-10-31T01:29:04;101966.72;;;12.57;99.08
61119;BME280;51448;51.660;5.824;2022-10-31T01:31:38;101977.31;;;12.53;98.85
61119;BME280;51448;51.660;5.824;2022-10-31T01:34:06;101963.38;;;12.47;98.57
61119;BME280;51448;51.660;5.824;2022-10-31T01:36:37;101934.38;;;12.44;99.71
61119;BME280;51448;51.660;5.824;2022-10-31T01:39:11;101923.91;;;12.41;99.42
61119;BME280;51448;51.660;5.824;2022-10-31T01:41:42;101923.91;;;12.40;99.66
61119;BME280;51448;51.660;5.824;2022-10-31T01:46:48;101934.53;;;12.37;99.49
61119;BME280;51448;51.660;5.824;2022-10-31T01:49:24;101935.44;;;12.34;100.00
61119;BME280;51448;51.660;5.824;2022-10-31T01:54:38;101944.28;;;12.32;100.00
61119;BME280;51448;51.660;5.824;2022-10-31T01:57:10;101944.31;;;12.30;100.00
61119;BME280;51448;51.660;5.824;2022-10-31T01:59:46;101947.84;;;12.31;100.00
61119;BME280;51448;51.660;5.824;2022-10-31T02:02:18;101950.50;;;12.29;100.00
61119;BME280;51448;51.660;5.824;2022-10-31T02:04:47;101956.75;;;12.23;100.00
61119;BME280;51448;51.660;5.824;2022-10-31T02:07:21;101956.81;;;12.19;100.00
61119;BME280;51448;51.660;5.824;2022-10-31T02:09:58;101954.28;;;12.14;100.00
61119;BME280;51448;51.660;5.824;2022-10-31T02:12:29;101956.09;;;12.11;100.00
61119;BME280;51448;51.660;5.824;2022-10-31T02:14:59;101954.38;;;12.08;100.00
61119;BME280;51448;51.660;5.824;2022-10-31T02:17:29;101956.13;;;12.07;100.00
61119;BME280;51448;51.660;5.824;2022-10-31T02:32:02;101944.06;;;11.91;100.00
61119;BME280;51448;51.660;5.824;2022-10-31T02:34:44;101949.41;;;11.90;100.00
61119;BME280;51448;51.660;5.824;2022-10-31T02:37:33;101944.13;;;11.86;100.00
61119;BME280;51448;51.660;5.824;2022-10-31T02:40:25;101951.25;;;11.81;100.00
61119;BME280;51448;51.660;5.824;2022-10-31T02:43:27;101938.97;;;11.79;100.00
61119;BME280;51448;51.660;5.824;2022-10-31T02:46:23;101946.00;;;11.78;100.00
61119;BME280;51448;51.660;5.824;2022-10-31T02:49:05;101938.13;;;11.77;100.00
61119;BME280;51448;51.660;5.824;2022-10-31T02:51:39;101936.41;;;11.74;100.00
61119;BME280;51448;51.660;5.824;2022-10-31T02:54:17;101946.09;;;11.74;100.00
61119;BME280;51448;51.660;5.824;2022-10-31T02:56:58;101947.91;;;11.68;100.00
61119;BME280;51448;51.660;5.824;2022-10-31T02:59:32;101950.63;;;11.62;100.00
61119;BME280;51448;51.660;5.824;2022-10-31T03:02:07;101945.41;;;11.59;100.00
61119;BME280;51448;51.660;5.824;2022-10-31T03:05:13;101942.81;;;11.56;100.00
61119;BME280;51448;51.660;5.824;2022-10-31T03:11:23;101948.16;;;11.50;100.00
61119;BME280;51448;51.660;5.824;2022-10-31T03:14:12;101942.03;;;11.51;100.00
61119;BME280;51448;51.660;5.824;2022-10-31T03:16:53;101942.06;;;11.48;100.00
61119;BME280;51448;51.660;5.824;2022-10-31T03:19:29;101939.47;;;11.45;100.00
61119;BME280;51448;51.660;5.824;2022-10-31T03:22:07;101944.81;;;11.39;100.00
61119;BME280;51448;51.660;5.824;2022-10-31T03:24:44;101948.41;;;11.32;100.00
61119;BME280;51448;51.660;5.824;2022-10-31T03:27:19;101944.09;;;11.27;100.00
61119;BME280;51448;51.660;5.824;2022-10-31T03:29:52;101946.78;;;11.24;100.00
61119;BME280;51448;51.660;5.824;2022-10-31T03:32:30;101943.28;;;11.22;100.00
61119;BME280;51448;51.660;5.824;2022-10-31T03:35:06;101937.19;;;11.20;100.00
61119;BME280;51448;51.660;5.824;2022-10-31T03:37:39;101936.31;;;11.18;100.00
61119;BME280;51448;51.660;5.824;2022-10-31T03:40:14;101938.09;;;11.16;100.00
61119;BME280;51448;51.660;5.824;2022-10-31T03:43:01;101935.47;;;11.18;100.00
61119;BME280;51448;51.660;5.824;2022-10-31T03:45:39;101934.59;;;11.16;100.00
61119;BME280;51448;51.660;5.824;2022-10-31T03:48:13;101943.38;;;11.16;100.00
61119;BME280;51448;51.660;5.824;2022-10-31T03:50:52;101936.41;;;11.12;100.00
61119;BME280;51448;51.660;5.824;2022-10-31T03:53:33;101943.44;;;11.12;100.00
61119;BME280;51448;51.660;5.824;2022-10-31T03:59:04;101943.44;;;11.10;100.00
61119;BME280;51448;51.660;5.824;2022-10-31T04:01:39;101940.81;;;11.08;100.00
61119;BME280;51448;51.660;5.824;2022-10-31T04:04:12;101946.16;;;11.05;100.00
61119;BME280;51448;51.660;5.824;2022-10-31T04:06:42;101948.78;;;11.05;100.00
61119;BME280;51448;51.660;5.824;2022-10-31T04:09:14;101947.03;;;11.03;100.00
61119;BME280;51448;51.660;5.824;2022-10-31T04:11:50;101942.69;;;11.00;100.00
61119;BME280;51448;51.660;5.824;2022-10-31T04:14:46;101943.63;;;10.95;100.00
61119;BME280;51448;51.660;5.824;2022-10-31T04:17:18;101944.53;;;10.92;100.00
61119;BME280;51448;51.660;5.824;2022-10-31T04:19:49;101934.94;;;10.86;100.00
61119;BME280;51448;51.660;5.824;2022-10-31T04:22:18;101938.50;;;10.82;100.00
61119;BME280;51448;51.660;5.824;2022-10-31T04:24:45;101940.28;;;10.80;100.00
61119;BME280;51448;51.660;5.824;2022-10-31T04:27:15;101941.19;;;10.76;100.00
61119;BME280;51448;51.660;5.824;2022-10-31T04:29:42;101937.72;;;10.74;100.00
61119;BME280;51448;51.660;5.824;2022-10-31T04:32:14;101937.75;;;10.71;100.00
61119;BME280;51448;51.660;5.824;2022-10-31T04:34:42;101937.78;;;10.68;100.00
61119;BME280;51448;51.660;5.824;2022-10-31T04:37:10;101928.19;;;10.64;100.00
61119;BME280;51448;51.660;5.824;2022-10-31T04:39:38;101931.72;;;10.60;100.00
61119;BME280;51448;51.660;5.824;2022-10-31T04:42:24;101932.66;;;10.57;100.00
61119;BME280;51448;51.660;5.824;2022-10-31T04:44:52;101930.03;;;10.56;100.00
61119;BME280;51448;51.660;5.824;2022-10-31T04:47:19;101925.66;;;10.55;100.00
61119;BME280;51448;51.660;5.824;2022-10-31T04:49:47;101935.34;;;10.53;100.00
61119;BME280;51448;51.660;5.824;2022-10-31T04:52:14;101936.25;;;10.50;100.00
61119;BME280;51448;51.660;5.824;2022-10-31T04:54:42;101930.13;;;10.48;100.00
61119;BME280;51448;51.660;5.824;2022-10-31T04:57:43;101929.22;;;10.47;100.00
61119;BME280;51448;51.660;5.824;2022-10-31T05:00:16;101920.47;;;10.47;100.00
61119;BME280;51448;51.660;5.824;2022-10-31T05:02:58;101927.44;;;10.50;100.00
61119;BME280;51448;51.660;5.824;2022-10-31T05:05:29;101916.06;;;10.51;100.00
61119;BME280;51448;51.660;5.824;2022-10-31T05:08:00;101916.06;;;10.51;100.00
61119;BME280;51448;51.660;5.824;2022-10-31T05:10:30;101914.34;;;10.48;100.00
61119;BME280;51448;51.660;5.824;2022-10-31T05:13:01;101916.13;;;10.44;100.00
61119;BME280;51448;51.660;5.824;2022-10-31T05:15:50;101916.19;;;10.38;100.00
61119;BME280;51448;51.660;5.824;2022-10-31T05:18:36;101917.09;;;10.33;100.00
61119;BME280;51448;51.660;5.824;2022-10-31T05:21:32;101923.25;;;10.28;100.00
61119;BME280;51448;51.660;5.824;2022-10-31T05:24:02;101914.50;;;10.25;100.00
61119;BME280;51448;51.660;5.824;2022-10-31T05:26:31;101916.31;;;10.21;100.00
61119;BME280;51448;51.660;5.824;2022-10-31T05:29:00;101914.56;;;10.20;100.00
61119;BME280;51448;51.660;5.824;2022-10-31T05:31:29;101914.56;;;10.19;100.00
61119;BME280;51448;51.660;5.824;2022-10-31T05:33:56;101918.09;;;10.18;100.00
61119;BME280;51448;51.660;5.824;2022-10-31T05:36:42;101919.88;;;10.14;100.00
61119;BME280;51448;51.660;5.824;2022-10-31T05:39:15;101918.13;;;10.15;100.00
61119;BME280;51448;51.660;5.824;2022-10-31T05:41:47;101911.13;;;10.12;100.00
61119;BME280;51448;51.660;5.824;2022-10-31T05:44:25;101911.13;;;10.11;100.00
61119;BME280;51448;51.660;5.824;2022-10-31T05:47:11;101907.66;;;10.08;100.00
61119;BME280;51448;51.660;5.824;2022-10-31T05:49:57;101906.84;;;10.05;100.00
61119;BME280;51448;51.660;5.824;2022-10-31T05:52:46;101914.72;;;10.00;100.00
61119;BME280;51448;51.660;5.824;2022-10-31T05:55:25;101906.91;;;9.96;100.00
61119;BME280;51448;51.660;5.824;2022-10-31T05:58:11;101900.81;;;9.89;100.00
61119;BME280;51448;51.660;5.824;2022-10-31T06:00:43;101895.63;;;9.83;100.00
61119;BME280;51448;51.660;5.824;2022-10-31T06:03:11;101900.03;;;9.79;100.00
61119;BME280;51448;51.660;5.824;2022-10-31T06:05:45;101899.16;;;9.76;100.00
61119;BME280;51448;51.660;5.824;2022-10-31T06:08:21;101901.81;;;9.73;100.00
61119;BME280;51448;51.660;5.824;2022-10-31T06:10:49;101898.34;;;9.71;100.00
61119;BME280;51448;51.660;5.824;2022-10-31T06:13:23;101896.63;;;9.68;100.00
61119;BME280;51448;51.660;5.824;2022-10-31T06:15:58;101899.25;;;9.66;100.00
61119;BME280;51448;51.660;5.824;2022-10-31T06:18:33;101909.75;;;9.65;100.00
61119;BME280;51448;51.660;5.824;2022-10-31T06:21:00;101912.41;;;9.62;100.00
61119;BME280;51448;51.660;5.824;2022-10-31T06:23:28;101911.56;;;9.58;100.00
61119;BME280;51448;51.660;5.824;2022-10-31T06:26:15;101908.06;;;9.53;100.00
61119;BME280;51448;51.660;5.824;2022-10-31T06:28:43;101911.59;;;9.52;100.00
61119;BME280;51448;51.660;5.824;2022-10-31T06:31:23;101907.22;;;9.51;100.00
61119;BME280;51448;51.660;5.824;2022-10-31T06:33:50;101901.97;;;9.51;100.00
61119;BME280;51448;51.660;5.824;2022-10-31T06:36:17;101897.59;;;9.50;100.00
61119;BME280;51448;51.660;5.824;2022-10-31T06:38:45;101901.09;;;9.49;100.00
61119;BME280;51448;51.660;5.824;2022-10-31T06:41:13;101897.59;;;9.50;100.00
61119;BME280;51448;51.660;5.824;2022-10-31T06:43:46;101894.97;;;9.50;100.00
61119;BME280;51448;51.660;5.824;2022-10-31T06:46:30;101896.72;;;9.51;100.00
61119;BME280;51448;51.660;5.824;2022-10-31T06:49:07;101898.47;;;9.54;100.00
61119;BME280;51448;51.660;5.824;2022-10-31T06:51:42;101894.94;;;9.53;100.00
61119;BME280;51448;51.660;5.824;2022-10-31T06:54:09;101901.06;;;9.55;100.00
61119;BME280;51448;51.660;5.824;2022-10-31T06:56:37;101894.03;;;9.57;100.00
61119;BME280;51448;51.660;5.824;2022-10-31T06:59:04;101914.16;;;9.61;100.00
61119;BME280;51448;51.660;5.824;2022-10-31T07:01:52;101917.63;;;9.66;100.00
61119;BME280;51448;51.660;5.824;2022-10-31T07:04:20;101921.13;;;9.70;100.00
61119;BME280;51448;51.660;5.824;2022-10-31T07:06:50;101918.44;;;9.75;100.00
61119;BME280;51448;51.660;5.824;2022-10-31T07:09:20;101915.78;;;9.79;100.00
61119;BME280;51448;51.660;5.824;2022-10-31T07:11:47;101914.00;;;9.84;100.00
61119;BME280;51448;51.660;5.824;2022-10-31T07:14:15;101913.09;;;9.89;100.00
61119;BME280;51448;51.660;5.824;2022-10-31T07:16:42;101913.06;;;9.93;100.00
61119;BME280;51448;51.660;5.824;2022-10-31T07:19:13;101905.13;;;9.98;100.00
61119;BME280;51448;51.660;5.824;2022-10-31T07:21:40;101910.34;;;10.02;100.00
61119;BME280;51448;51.660;5.824;2022-10-31T07:24:09;101911.19;;;10.06;100.00
61119;BME280;51448;51.660;5.824;2022-10-31T07:26:42;101905.94;;;10.07;100.00
61119;BME280;51448;51.660;5.824;2022-10-31T07:29:13;101902.44;;;10.05;100.00
61119;BME280;51448;51.660;5.824;2022-10-31T07:31:41;101910.31;;;10.05;100.00
61119;BME280;51448;51.660;5.824;2022-10-31T07:34:17;101914.69;;;10.06;100.00
61119;BME280;51448;51.660;5.824;2022-10-31T07:37:03;101908.56;;;10.09;100.00
61119;BME280;51448;51.660;5.824;2022-10-31T07:39:32;101914.63;;;10.14;100.00
61119;BME280;51448;51.660;5.824;2022-10-31T07:42:00;101911.06;;;10.20;100.00
61119;BME280;51448;51.660;5.824;2022-10-31T07:44:28;101917.13;;;10.25;100.00
61119;BME280;51448;51.660;5.824;2022-10-31T07:47:14;101910.13;;;10.30;100.00
61119;BME280;51448;51.660;5.824;2022-10-31T07:50:00;101921.47;;;10.37;100.00
61119;BME280;51448;51.660;5.824;2022-10-31T07:52:48;101917.03;;;10.42;100.00
61119;BME280;51448;51.660;5.824;2022-10-31T07:55:42;101930.09;;;10.50;100.00
61119;BME280;51448;51.660;5.824;2022-10-31T07:58:14;101932.66;;;10.56;100.00
61119;BME280;51448;51.660;5.824;2022-10-31T08:00:44;101933.44;;;10.64;100.00
61119;BME280;51448;51.660;5.824;2022-10-31T08:03:18;101922.91;;;10.69;100.00
61119;BME280;51448;51.660;5.824;2022-10-31T08:06:05;101932.44;;;10.74;100.00
61119;BME280;51448;51.660;5.824;2022-10-31T08:08:52;101928.88;;;10.81;100.00
61119;BME280;51448;51.660;5.824;2022-10-31T08:11:20;101927.03;;;10.88;100.00
61119;BME280;51448;51.660;5.824;2022-10-31T08:13:47;101925.25;;;10.93;100.00
61119;BME280;51448;51.660;5.824;2022-10-31T08:16:15;101936.56;;;11.00;100.00
61119;BME280;51448;51.660;5.824;2022-10-31T08:18:51;101930.31;;;11.07;100.00
61119;BME280;51448;51.660;5.824;2022-10-31T08:21:20;101924.09;;;11.13;100.00
61119;BME280;51448;51.660;5.824;2022-10-31T08:23:49;101918.75;;;11.20;100.00
61119;BME280;51448;51.660;5.824;2022-10-31T08:26:18;101921.28;;;11.28;100.00
61119;BME280;51448;51.660;5.824;2022-10-31T08:28:47;101928.19;;;11.37;100.00
61119;BME280;51448;51.660;5.824;2022-10-31T08:31:19;101921.97;;;11.41;100.00
61119;BME280;51448;51.660;5.824;2022-10-31T08:33:46;101923.59;;;11.51;100.00
61119;BME280;51448;51.660;5.824;2022-10-31T08:36:20;101919.91;;;11.61;100.00
61119;BME280;51448;51.660;5.824;2022-10-31T08:39:04;101917.09;;;11.74;100.00
61119;BME280;51448;51.660;5.824;2022-10-31T08:41:31;101917.75;;;11.88;100.00
61119;BME280;51448;51.660;5.824;2022-10-31T08:44:00;101904.41;;;11.99;100.00
61119;BME280;51448;51.660;5.824;2022-10-31T08:46:27;101909.44;;;12.14;100.00
61119;BME280;51448;51.660;5.824;2022-10-31T08:48:55;101889.84;;;12.27;100.00
61119;BME280;51448;51.660;5.824;2022-10-31T08:51:23;101892.25;;;12.40;100.00
61119;BME280;51448;51.660;5.824;2022-10-31T08:53:53;101892.88;;;12.53;100.00
61119;BME280;51448;51.660;5.824;2022-10-31T08:56:41;101891.69;;;12.69;100.00
61119;BME280;51448;51.660;5.824;2022-10-31T08:59:25;101894.88;;;12.86;100.00
61119;BME280;51448;51.660;5.824;2022-10-31T09:02:15;101898.94;;;13.01;100.00
61119;BME280;51448;51.660;5.824;2022-10-31T09:04:43;101897.81;;;13.13;100.00
61119;BME280;51448;51.660;5.824;2022-10-31T09:07:10;101895.81;;;13.24;100.00
61119;BME280;51448;51.660;5.824;2022-10-31T09:09:53;101893.75;;;13.39;100.00
61119;BME280;51448;51.660;5.824;2022-10-31T09:12:22;101873.25;;;13.50;100.00
61119;BME280;51448;51.660;5.824;2022-10-31T09:15:11;101853.63;;;13.60;100.00
61119;BME280;51448;51.660;5.824;2022-10-31T09:17:53;101845.59;;;13.63;100.00
61119;BME280;51448;51.660;5.824;2022-10-31T09:20:28;101833.16;;;13.68;100.00
61119;BME280;51448;51.660;5.824;2022-10-31T09:22:58;101845.28;;;13.76;100.00
61119;BME280;51448;51.660;5.824;2022-10-31T09:25:29;101838.13;;;13.81;100.00
61119;BME280;51448;51.660;5.824;2022-10-31T09:28:22;101835.31;;;13.87;100.00
61119;BME280;51448;51.660;5.824;2022-10-31T09:30:53;101837.94;;;13.88;100.00
61119;BME280;51448;51.660;5.824;2022-10-31T09:33:43;101841.34;;;13.92;100.00
61119;BME280;51448;51.660;5.824;2022-10-31T09:36:30;101850.88;;;13.99;100.00
61119;BME280;51448;51.660;5.824;2022-10-31T09:38:58;101852.38;;;14.09;100.00
61119;BME280;51448;51.660;5.824;2022-10-31T09:44:44;101849.78;;;14.39;100.00
61119;BME280;51448;51.660;5.824;2022-10-31T09:50:58;101844.56;;;14.69;100.00
61119;BME280;51448;51.660;5.824;2022-10-31T09:53:53;101843.44;;;14.78;100.00
61119;BME280;51448;51.660;5.824;2022-10-31T09:56:31;101833.47;;;14.86;100.00
61119;BME280;51448;51.660;5.824;2022-10-31T09:59:02;101829.75;;;14.93;100.00
61119;BME280;51448;51.660;5.824;2022-10-31T10:01:55;101820.63;;;15.02;100.00
61119;BME280;51448;51.660;5.824;2022-10-31T10:07:58;101816.78;;;15.12;100.00
61119;BME280;51448;51.660;5.824;2022-10-31T10:11:02;101814.97;;;15.14;100.00
61119;BME280;51448;51.660;5.824;2022-10-31T10:13:57;101815.72;;;15.18;100.00
61119;BME280;51448;51.660;5.824;2022-10-31T10:22:54;101801.97;;;15.33;100.00
61119;BME280;51448;51.660;5.824;2022-10-31T10:25:45;101806.91;;;15.44;100.00
61119;BME280;51448;51.660;5.824;2022-10-31T10:28:28;101808.31;;;15.56;100.00
61119;BME280;51448;51.660;5.824;2022-10-31T10:31:16;101804.25;;;15.70;100.00
61119;BME280;51448;51.660;5.824;2022-10-31T10:34:01;101792.41;;;15.82;100.00
61119;BME280;51448;51.660;5.824;2022-10-31T10:36:42;101784.00;;;15.95;100.00
61119;BME280;51448;51.660;5.824;2022-10-31T10:39:25;101776.38;;;16.11;100.00
61119;BME280;51448;51.660;5.824;2022-10-31T10:41:58;101777.56;;;16.27;100.00
61119;BME280;51448;51.660;5.824;2022-10-31T10:44:48;101779.63;;;16.42;100.00
61119;BME280;51448;51.660;5.824;2022-10-31T10:47:44;101761.56;;;16.52;100.00
61119;BME280;51448;51.660;5.824;2022-10-31T10:50:20;101761.22;;;16.61;100.00
61119;BME280;51448;51.660;5.824;2022-10-31T10:58:31;101731.75;;;16.67;100.00
61119;BME280;51448;51.660;5.824;2022-10-31T11:00:59;101732.56;;;16.69;100.00
61119;BME280;51448;51.660;5.824;2022-10-31T11:03:26;101725.50;;;16.68;100.00
61119;BME280;51448;51.660;5.824;2022-10-31T11:05:56;101719.09;;;16.74;100.00
61119;BME280;51448;51.660;5.824;2022-10-31T11:08:33;101709.13;;;16.79;100.00
61119;BME280;51448;51.660;5.824;2022-10-31T11:14:04;101721.84;;;16.95;100.00
61119;BME280;51448;51.660;5.824;2022-10-31T11:16:46;101724.13;;;17.04;100.00
61119;BME280;51448;51.660;5.824;2022-10-31T11:19:25;101725.88;;;17.05;100.00
61119;BME280;51448;51.660;5.824;2022-10-31T11:22:05;101718.75;;;17.05;99.94
61119;BME280;51448;51.660;5.824;2022-10-31T11:24:40;101707.13;;;17.08;99.43
61119;BME280;51448;51.660;5.824;2022-10-31T11:27:19;101712.31;;;17.11;99.29
61119;BME280;51448;51.660;5.824;2022-10-31T11:29:49;101700.75;;;17.12;99.32
61119;BME280;51448;51.660;5.824;2022-10-31T11:32:22;101708.56;;;17.17;99.28
61119;BME280;51448;51.660;5.824;2022-10-31T11:34:57;101702.09;;;17.22;99.43
61119;BME280;51448;51.660;5.824;2022-10-31T11:37:41;101700.06;;;17.29;99.06
61119;BME280;51448;51.660;5.824;2022-10-31T11:40:16;101692.88;;;17.31;98.91
61119;BME280;51448;51.660;5.824;2022-10-31T11:42:46;101685.63;;;17.35;99.16
61119;BME280;51448;51.660;5.824;2022-10-31T11:47:51;101677.31;;;17.42;98.41
61119;BME280;51448;51.660;5.824;2022-10-31T11:50:36;101674.38;;;17.48;97.98
61119;BME280;51448;51.660;5.824;2022-10-31T11:53:16;101659.75;;;17.59;97.08
61119;BME280;51448;51.660;5.824;2022-10-31T11:56:02;101655.03;;;17.65;96.53
61119;BME280;51448;51.660;5.824;2022-10-31T11:58:32;101641.31;;;17.75;95.50
61119;BME280;51448;51.660;5.824;2022-10-31T12:00:59;101640.00;;;17.85;95.33
61119;BME280;51448;51.660;5.824;2022-10-31T12:03:41;101634.13;;;17.97;94.73
61119;BME280;51448;51.660;5.824;2022-10-31T12:06:20;101628.34;;;18.06;94.37
61119;BME280;51448;51.660;5.824;2022-10-31T12:08:52;101632.31;;;18.17;94.52
61119;BME280;51448;51.660;5.824;2022-10-31T12:11:41;101627.41;;;18.26;93.34
61119;BME280;51448;51.660;5.824;2022-10-31T12:14:20;101614.94;;;18.27;93.16
61119;BME280;51448;51.660;5.824;2022-10-31T12:17:15;101617.78;;;18.24;90.91
61119;BME280;51448;51.660;5.824;2022-10-31T12:20:07;101598.47;;;18.19;91.19
61119;BME280;51448;51.660;5.824;2022-10-31T12:22:59;101589.63;;;18.18;91.16
61119;BME280;51448;51.660;5.824;2022-10-31T12:28:25;101573.44;;;18.23;91.35
61119;BME280;51448;51.660;5.824;2022-10-31T12:37:24;101544.81;;;18.28;90.92
61119;BME280;51448;51.660;5.824;2022-10-31T12:43:29;101534.44;;;18.22;91.21
61119;BME280;51448;51.660;5.824;2022-10-31T12:46:28;101519.41;;;18.21;91.23
61119;BME280;51448;51.660;5.824;2022-10-31T12:49:09;101519.50;;;18.19;89.88
61119;BME280;51448;51.660;5.824;2022-10-31T12:52:03;101504.50;;;18.17;89.78
61119;BME280;51448;51.660;5.824;2022-10-31T12:55:09;101509.94;;;18.15;88.65
61119;BME280;51448;51.660;5.824;2022-10-31T12:57:44;101504.69;;;18.14;88.82
61119;BME280;51448;51.660;5.824;2022-10-31T13:00:17;101507.28;;;18.15;88.55
61119;BME280;51448;51.660;5.824;2022-10-31T13:05:30;101489.31;;;18.19;88.46
61119;BME280;51448;51.660;5.824;2022-10-31T13:08:10;101487.63;;;18.18;87.36
61119;BME280;51448;51.660;5.824;2022-10-31T13:10:43;101484.31;;;18.13;87.45
61119;BME280;51448;51.660;5.824;2022-10-31T13:16:37;101465.06;;;18.07;87.60
61119;BME280;51448;51.660;5.824;2022-10-31T13:19:16;101458.00;;;18.06;87.32
61119;BME280;51448;51.660;5.824;2022-10-31T13:22:04;101444.78;;;18.05;87.77
61119;BME280;51448;51.660;5.824;2022-10-31T13:24:41;101436.06;;;18.01;87.06
61119;BME280;51448;51.660;5.824;2022-10-31T13:27:20;101436.38;;;17.95;87.23
61119;BME280;51448;51.660;5.824;2022-10-31T13:29:59;101432.28;;;17.88;87.05
61119;BME280;51448;51.660;5.824;2022-10-31T13:33:02;101427.22;;;17.82;87.60
61119;BME280;51448;51.660;5.824;2022-10-31T13:39:04;101419.78;;;17.71;87.99
61119;BME280;51448;51.660;5.824;2022-10-31T13:42:01;101408.34;;;17.69;88.46
61119;BME280;51448;51.660;5.824;2022-10-31T13:44:35;101411.88;;;17.69;88.67
61119;BME280;51448;51.660;5.824;2022-10-31T13:47:27;101395.00;;;17.70;88.54
61119;BME280;51448;51.660;5.824;2022-10-31T13:50:28;101387.00;;;17.70;88.98
61119;BME280;51448;51.660;5.824;2022-10-31T13:53:20;101384.19;;;17.74;88.99
61119;BME280;51448;51.660;5.824;2022-10-31T13:56:02;101383.25;;;17.75;89.06
61119;BME280;51448;51.660;5.824;2022-10-31T13:58:32;101384.97;;;17.76;88.25
61119;BME280;51448;51.660;5.824;2022-10-31T14:01:19;101372.56;;;17.76;88.48
61119;BME280;51448;51.660;5.824;2022-10-31T14:09:39;101365.34;;;17.78;88.49
61119;BME280;51448;51.660;5.824;2022-10-31T14:17:52;101357.38;;;17.78;89.12
61119;BME280;51448;51.660;5.824;2022-10-31T14:20:44;101350.19;;;17.80;89.40
61119;BME280;51448;51.660;5.824;2022-10-31T14:23:35;101343.88;;;17.83;89.33
61119;BME280;51448;51.660;5.824;2022-10-31T14:29:30;101335.91;;;17.81;89.67
61119;BME280;51448;51.660;5.824;2022-10-31T14:43:46;101299.47;;;17.66;90.71
61119;BME280;51448;51.660;5.824;2022-10-31T14:46:48;101293.97;;;17.69;90.78
61119;BME280;51448;51.660;5.824;2022-10-31T14:49:32;101292.03;;;17.73;90.68
61119;BME280;51448;51.660;5.824;2022-10-31T14:52:05;101280.22;;;17.78;90.63
61119;BME280;51448;51.660;5.824;2022-10-31T14:54:39;101280.22;;;17.78;90.68
61119;BME280;51448;51.660;5.824;2022-10-31T14:57:25;101272.31;;;17.77;90.87
61119;BME280;51448;51.660;5.824;2022-10-31T15:00:26;101276.00;;;17.74;91.04
61119;BME280;51448;51.660;5.824;2022-10-31T15:03:28;101269.09;;;17.70;91.09
61119;BME280;51448;51.660;5.824;2022-10-31T15:06:09;101280.06;;;17.64;91.13
61119;BME280;51448;51.660;5.824;2022-10-31T15:11:16;101274.16;;;17.57;91.22
61119;BME280;51448;51.660;5.824;2022-10-31T15:13:58;101275.13;;;17.56;91.43
61119;BME280;51448;51.660;5.824;2022-10-31T15:16:35;101263.69;;;17.54;91.61